sensor_id;sensor_type;location;lat;lon;timestamp;pressure;altitude;pressure_sealevel;temperature;humidity
10518;BME280;5307;42.548;22.968;2023-10-19T00:00:12;93937.84;;;8.88;100.00
10518;BME280;5307;42.548;22.968;2023-10-19T00:02:49;93937.59;;;8.70;100.00
10518;BME280;5307;42.548;22.968;2023-10-19T00:05:20;93920.63;;;8.79;100.00
10518;BME280;5307;42.548;22.968;2023-10-19T00:07:47;93935.53;;;8.74;100.00
10518;BME280;5307;42.548;22.968;2023-10-19T00:10:15;93922.88;;;8.68;100.00
10518;BME280;5307;42.548;22.968;2023-10-19T00:12:43;93928.91;;;8.75;100.00
10518;BME280;5307;42.548;22.968;2023-10-19T00:15:18;93926.69;;;8.70;100.00
10518;BME280;5307;42.548;22.968;2023-10-19T00:17:49;93916.94;;;8.73;100.00
10518;BME280;5307;42.548;22.968;2023-10-19T00:20:19;93925.72;;;8.64;100.00
10518;BME280;5307;42.548;22.968;2023-10-19T00:23:03;93919.84;;;8.78;100.00
10518;BME280;5307;42.548;22.968;2023-10-19T00:25:31;93915.81;;;8.70;100.00
10518;BME280;5307;42.548;22.968;2023-10-19T00:28:01;93912.97;;;8.61;100.00
10518;BME280;5307;42.548;22.968;2023-10-19T00:30:30;93909.09;;;8.75;100.00
10518;BME280;5307;42.548;22.968;2023-10-19T00:33:01;93906.44;;;8.71;100.00
10518;BME280;5307;42.548;22.968;2023-10-19T00:35:29;93903.28;;;8.60;100.00
10518;BME280;5307;42.548;22.968;2023-10-19T00:38:02;93902.59;;;8.56;100.00
10518;BME280;5307;42.548;22.968;2023-10-19T00:40:42;93895.13;;;8.60;100.00
10518;BME280;5307;42.548;22.968;2023-10-19T00:43:26;93892.44;;;8.44;100.00
10518;BME280;5307;42.548;22.968;2023-10-19T00:45:52;93893.94;;;8.61;100.00
10518;BME280;5307;42.548;22.968;2023-10-19T00:48:20;93895.13;;;8.60;100.00
10518;BME280;5307;42.548;22.968;2023-10-19T00:50:52;93900.31;;;8.54;100.00
10518;BME280;5307;42.548;22.968;2023-10-19T00:53:33;93896.94;;;8.50;100.00
10518;BME280;5307;42.548;22.968;2023-10-19T00:56:01;93903.81;;;8.55;100.00
10518;BME280;5307;42.548;22.968;2023-10-19T00:58:32;93910.59;;;8.63;100.00
10518;BME280;5307;42.548;22.968;2023-10-19T01:01:02;93903.91;;;8.51;100.00
10518;BME280;5307;42.548;22.968;2023-10-19T01:03:31;93914.22;;;8.15;100.00
10518;BME280;5307;42.548;22.968;2023-10-19T01:06:03;93908.31;;;8.03;100.00
10518;BME280;5307;42.548;22.968;2023-10-19T01:08:36;93916.09;;;7.89;100.00
10518;BME280;5307;42.548;22.968;2023-10-19T01:11:08;93906.97;;;7.95;100.00
10518;BME280;5307;42.548;22.968;2023-10-19T01:13:38;93901.34;;;8.02;100.00
10518;BME280;5307;42.548;22.968;2023-10-19T01:16:12;93903.28;;;8.02;100.00
10518;BME280;5307;42.548;22.968;2023-10-19T01:18:46;93893.59;;;8.01;100.00
10518;BME280;5307;42.548;22.968;2023-10-19T01:21:13;93902.06;;;7.90;100.00
10518;BME280;5307;42.548;22.968;2023-10-19T01:23:46;93892.19;;;7.96;100.00
10518;BME280;5307;42.548;22.968;2023-10-19T01:26:14;93900.44;;;7.93;100.00
10518;BME280;5307;42.548;22.968;2023-10-19T01:28:44;93896.28;;;7.88;100.00
10518;BME280;5307;42.548;22.968;2023-10-19T01:31:14;93901.09;;;7.97;100.00
10518;BME280;5307;42.548;22.968;2023-10-19T01:33:42;93903.75;;;7.84;100.00
10518;BME280;5307;42.548;22.968;2023-10-19T01:36:10;93904.69;;;7.94;100.00
10518;BME280;5307;42.548;22.968;2023-10-19T01:38:37;93903.91;;;7.93;100.00
10518;BME280;5307;42.548;22.968;2023-10-19T01:41:06;93906.38;;;7.88;100.00
10518;BME280;5307;42.548;22.968;2023-10-19T01:43:39;93910.22;;;7.90;100.00
10518;BME280;5307;42.548;22.968;2023-10-19T01:46:07;93912.31;;;7.99;100.00
10518;BME280;5307;42.548;22.968;2023-10-19T01:48:37;93912.31;;;7.99;100.00
10518;BME280;5307;42.548;22.968;2023-10-19T01:51:07;93910.03;;;7.97;100.00
10518;BME280;5307;42.548;22.968;2023-10-19T01:53:36;93916.09;;;7.89;100.00
10518;BME280;5307;42.548;22.968;2023-10-19T01:56:06;93901.03;;;7.39;100.00
10518;BME280;5307;42.548;22.968;2023-10-19T01:58:35;93899.31;;;7.29;100.00
10518;BME280;5307;42.548;22.968;2023-10-19T02:01:03;93904.94;;;7.22;100.00
10518;BME280;5307;42.548;22.968;2023-10-19T02:03:34;93902.88;;;7.42;100.00
10518;BME280;5307;42.548;22.968;2023-10-19T02:06:02;93909.75;;;7.14;100.00
10518;BME280;5307;42.548;22.968;2023-10-19T02:08:36;93902.03;;;6.96;100.00
10518;BME280;5307;42.548;22.968;2023-10-19T02:11:07;93901.59;;;7.14;100.00
10518;BME280;5307;42.548;22.968;2023-10-19T02:13:42;93907.13;;;7.27;100.00
10518;BME280;5307;42.548;22.968;2023-10-19T02:16:10;93912.31;;;7.21;100.00
10518;BME280;5307;42.548;22.968;2023-10-19T02:18:36;93913.06;;;7.22;100.00
10518;BME280;5307;42.548;22.968;2023-10-19T02:21:04;93908.41;;;7.22;100.00
10518;BME280;5307;42.548;22.968;2023-10-19T02:23:31;93914.97;;;6.89;100.00
10518;BME280;5307;42.548;22.968;2023-10-19T02:25:59;93920.69;;;7.10;100.00
10518;BME280;5307;42.548;22.968;2023-10-19T02:28:26;93919.03;;;7.33;100.00
10518;BME280;5307;42.548;22.968;2023-10-19T02:30:58;93910.84;;;7.17;100.00
10518;BME280;5307;42.548;22.968;2023-10-19T02:33:27;93917.88;;;6.98;100.00
10518;BME280;5307;42.548;22.968;2023-10-19T02:35:55;93914.59;;;7.06;100.00
10518;BME280;5307;42.548;22.968;2023-10-19T02:38:22;93914.75;;;6.99;100.00
10518;BME280;5307;42.548;22.968;2023-10-19T02:40:49;93921.31;;;7.18;100.00
10518;BME280;5307;42.548;22.968;2023-10-19T02:43:15;93921.03;;;7.45;100.00
10518;BME280;5307;42.548;22.968;2023-10-19T02:45:44;93920.28;;;7.28;100.00
10518;BME280;5307;42.548;22.968;2023-10-19T02:48:13;93922.66;;;7.10;100.00
10518;BME280;5307;42.548;22.968;2023-10-19T02:50:41;93917.91;;;7.30;100.00
10518;BME280;5307;42.548;22.968;2023-10-19T02:53:08;93915.94;;;7.14;100.00
10518;BME280;5307;42.548;22.968;2023-10-19T02:55:38;93916.28;;;7.17;100.00
10518;BME280;5307;42.548;22.968;2023-10-19T02:58:06;93906.63;;;7.15;100.00
10518;BME280;5307;42.548;22.968;2023-10-19T03:00:31;93915.63;;;7.12;100.00
10518;BME280;5307;42.548;22.968;2023-10-19T03:03:01;93918.31;;;7.12;100.00
10518;BME280;5307;42.548;22.968;2023-10-19T03:05:30;93918.31;;;7.12;100.00
10518;BME280;5307;42.548;22.968;2023-10-19T03:07:59;93910.06;;;6.83;100.00
10518;BME280;5307;42.548;22.968;2023-10-19T03:10:25;93908.78;;;6.88;100.00
10518;BME280;5307;42.548;22.968;2023-10-19T03:13:00;93912.25;;;6.89;100.00
10518;BME280;5307;42.548;22.968;2023-10-19T03:15:26;93899.19;;;6.67;100.00
10518;BME280;5307;42.548;22.968;2023-10-19T03:17:55;93900.38;;;6.82;100.00
10518;BME280;5307;42.548;22.968;2023-10-19T03:20:23;93898.59;;;6.76;100.00
10518;BME280;5307;42.548;22.968;2023-10-19T03:22:51;93903.75;;;6.70;100.00
10518;BME280;5307;42.548;22.968;2023-10-19T03:25:17;93904.47;;;6.54;100.00
10518;BME280;5307;42.548;22.968;2023-10-19T03:28:01;93903.66;;;6.74;100.00
10518;BME280;5307;42.548;22.968;2023-10-19T03:30:34;93904.75;;;6.96;100.00
10518;BME280;5307;42.548;22.968;2023-10-19T03:33:05;93909.16;;;6.90;100.00
10518;BME280;5307;42.548;22.968;2023-10-19T03:35:37;93907.38;;;7.00;100.00
10518;BME280;5307;42.548;22.968;2023-10-19T03:38:07;93906.34;;;6.94;100.00
10518;BME280;5307;42.548;22.968;2023-10-19T03:40:40;93905.97;;;6.75;100.00
10518;BME280;5307;42.548;22.968;2023-10-19T03:43:07;93893.69;;;6.87;100.00
10518;BME280;5307;42.548;22.968;2023-10-19T03:45:43;93900.31;;;7.02;100.00
10518;BME280;5307;42.548;22.968;2023-10-19T03:48:17;93893.97;;;7.25;100.00
10518;BME280;5307;42.548;22.968;2023-10-19T03:50:45;93887.13;;;7.21;100.00
10518;BME280;5307;42.548;22.968;2023-10-19T03:53:17;93888.25;;;6.87;100.00
10518;BME280;5307;42.548;22.968;2023-10-19T03:55:44;93888.63;;;7.05;100.00
10518;BME280;5307;42.548;22.968;2023-10-19T03:58:12;93895.72;;;6.83;100.00
10518;BME280;5307;42.548;22.968;2023-10-19T04:00:40;93899.31;;;6.96;100.00
10518;BME280;5307;42.548;22.968;2023-10-19T04:03:07;93898.78;;;6.85;100.00
10518;BME280;5307;42.548;22.968;2023-10-19T04:05:34;93900.41;;;6.99;100.00
10518;BME280;5307;42.548;22.968;2023-10-19T04:08:06;93899.66;;;7.14;100.00
10518;BME280;5307;42.548;22.968;2023-10-19T04:10:38;93899.63;;;6.82;100.00
10518;BME280;5307;42.548;22.968;2023-10-19T04:13:10;93895.94;;;6.72;100.00
10518;BME280;5307;42.548;22.968;2023-10-19T04:15:38;93888.09;;;6.78;100.00
10518;BME280;5307;42.548;22.968;2023-10-19T04:18:05;93886.41;;;6.48;100.00
10518;BME280;5307;42.548;22.968;2023-10-19T04:20:35;93896.38;;;6.71;100.00
10518;BME280;5307;42.548;22.968;2023-10-19T04:23:09;93891.13;;;6.64;100.00
10518;BME280;5307;42.548;22.968;2023-10-19T04:25:39;93890.50;;;6.92;100.00
10518;BME280;5307;42.548;22.968;2023-10-19T04:28:06;93889.88;;;6.84;100.00
10518;BME280;5307;42.548;22.968;2023-10-19T04:30:34;93873.75;;;6.77;100.00
10518;BME280;5307;42.548;22.968;2023-10-19T04:33:04;93875.00;;;6.73;100.00
10518;BME280;5307;42.548;22.968;2023-10-19T04:35:34;93866.09;;;6.72;100.00
10518;BME280;5307;42.548;22.968;2023-10-19T04:38:03;93868.25;;;6.81;100.00
10518;BME280;5307;42.548;22.968;2023-10-19T04:40:33;93867.06;;;6.82;100.00
10518;BME280;5307;42.548;22.968;2023-10-19T04:43:02;93871.31;;;6.47;100.00
10518;BME280;5307;42.548;22.968;2023-10-19T04:45:30;93864.75;;;6.64;100.00
10518;BME280;5307;42.548;22.968;2023-10-19T04:47:58;93865.75;;;6.70;100.00
10518;BME280;5307;42.548;22.968;2023-10-19T04:50:25;93856.94;;;6.30;100.00
10518;BME280;5307;42.548;22.968;2023-10-19T04:52:51;93852.94;;;6.54;100.00
10518;BME280;5307;42.548;22.968;2023-10-19T04:55:19;93856.09;;;6.33;100.00
10518;BME280;5307;42.548;22.968;2023-10-19T04:57:47;93868.53;;;6.50;100.00
10518;BME280;5307;42.548;22.968;2023-10-19T05:00:17;93869.56;;;6.73;100.00
10518;BME280;5307;42.548;22.968;2023-10-19T05:02:47;93867.72;;;6.70;100.00
10518;BME280;5307;42.548;22.968;2023-10-19T05:05:14;93878.06;;;6.75;100.00
10518;BME280;5307;42.548;22.968;2023-10-19T05:07:42;93877.03;;;6.69;100.00
10518;BME280;5307;42.548;22.968;2023-10-19T05:10:09;93870.84;;;6.68;100.00
10518;BME280;5307;42.548;22.968;2023-10-19T05:12:36;93873.25;;;6.82;100.00
10518;BME280;5307;42.548;22.968;2023-10-19T05:15:05;93871.09;;;6.74;100.00
10518;BME280;5307;42.548;22.968;2023-10-19T05:17:32;93881.69;;;7.04;100.00
10518;BME280;5307;42.548;22.968;2023-10-19T05:19:59;93876.31;;;7.17;100.00
10518;BME280;5307;42.548;22.968;2023-10-19T05:22:25;93874.53;;;6.94;100.00
10518;BME280;5307;42.548;22.968;2023-10-19T05:24:55;93889.69;;;6.75;100.00
10518;BME280;5307;42.548;22.968;2023-10-19T05:27:21;93890.50;;;6.92;100.00
10518;BME280;5307;42.548;22.968;2023-10-19T05:29:49;93882.25;;;6.96;100.00
10518;BME280;5307;42.548;22.968;2023-10-19T05:32:18;93879.63;;;7.08;100.00
10518;BME280;5307;42.548;22.968;2023-10-19T05:34:45;93881.16;;;7.09;100.00
10518;BME280;5307;42.548;22.968;2023-10-19T05:37:12;93883.53;;;6.91;100.00
10518;BME280;5307;42.548;22.968;2023-10-19T05:39:39;93875.72;;;7.09;100.00
10518;BME280;5307;42.548;22.968;2023-10-19T05:42:07;93881.59;;;7.24;100.00
10518;BME280;5307;42.548;22.968;2023-10-19T05:44:34;93884.13;;;7.48;100.00
10518;BME280;5307;42.548;22.968;2023-10-19T05:47:00;93885.78;;;7.58;100.00
10518;BME280;5307;42.548;22.968;2023-10-19T05:49:29;93881.47;;;7.60;100.00
10518;BME280;5307;42.548;22.968;2023-10-19T05:51:55;93880.63;;;7.63;100.00
10518;BME280;5307;42.548;22.968;2023-10-19T05:54:22;93888.31;;;7.81;100.00
10518;BME280;5307;42.548;22.968;2023-10-19T05:56:49;93888.38;;;7.94;100.00
10518;BME280;5307;42.548;22.968;2023-10-19T05:59:17;93894.94;;;8.09;100.00
10518;BME280;5307;42.548;22.968;2023-10-19T06:01:43;93884.59;;;8.33;100.00
10518;BME280;5307;42.548;22.968;2023-10-19T06:04:13;93883.69;;;8.23;100.00
10518;BME280;5307;42.548;22.968;2023-10-19T06:06:41;93874.72;;;8.39;100.00
10518;BME280;5307;42.548;22.968;2023-10-19T06:09:08;93875.38;;;8.43;100.00
10518;BME280;5307;42.548;22.968;2023-10-19T06:11:35;93872.16;;;8.61;100.00
10518;BME280;5307;42.548;22.968;2023-10-19T06:14:07;93882.50;;;8.79;100.00
10518;BME280;5307;42.548;22.968;2023-10-19T06:16:35;93887.75;;;8.73;100.00
10518;BME280;5307;42.548;22.968;2023-10-19T06:19:02;93874.44;;;9.01;100.00
10518;BME280;5307;42.548;22.968;2023-10-19T06:21:29;93875.84;;;9.31;100.00
10518;BME280;5307;42.548;22.968;2023-10-19T06:23:58;93873.13;;;9.78;100.00
10518;BME280;5307;42.548;22.968;2023-10-19T06:26:25;93882.13;;;9.40;100.00
10518;BME280;5307;42.548;22.968;2023-10-19T06:28:51;93868.59;;;9.62;100.00
10518;BME280;5307;42.548;22.968;2023-10-19T06:31:22;93863.91;;;9.63;100.00
10518;BME280;5307;42.548;22.968;2023-10-19T06:33:49;93865.69;;;9.78;100.00
10518;BME280;5307;42.548;22.968;2023-10-19T06:36:16;93842.94;;;9.72;100.00
10518;BME280;5307;42.548;22.968;2023-10-19T06:38:43;93840.47;;;9.87;100.00
10518;BME280;5307;42.548;22.968;2023-10-19T06:41:11;93845.88;;;10.00;100.00
10518;BME280;5307;42.548;22.968;2023-10-19T06:43:38;93843.19;;;10.09;100.00
10518;BME280;5307;42.548;22.968;2023-10-19T06:46:05;93846.28;;;10.33;100.00
10518;BME280;5307;42.548;22.968;2023-10-19T06:48:32;93833.69;;;10.35;100.00
10518;BME280;5307;42.548;22.968;2023-10-19T06:51:01;93839.00;;;10.61;100.00
10518;BME280;5307;42.548;22.968;2023-10-19T06:53:27;93841.34;;;10.72;100.00
10518;BME280;5307;42.548;22.968;2023-10-19T06:55:54;93843.44;;;11.08;100.00
10518;BME280;5307;42.548;22.968;2023-10-19T06:58:28;93847.91;;;10.83;100.00
10518;BME280;5307;42.548;22.968;2023-10-19T07:00:55;93836.31;;;11.10;100.00
10518;BME280;5307;42.548;22.968;2023-10-19T07:03:36;93837.94;;;11.48;100.00
10518;BME280;5307;42.548;22.968;2023-10-19T07:06:03;93846.63;;;11.65;100.00
10518;BME280;5307;42.548;22.968;2023-10-19T07:08:39;93847.13;;;12.27;100.00
10518;BME280;5307;42.548;22.968;2023-10-19T07:11:06;93848.59;;;12.56;100.00
10518;BME280;5307;42.548;22.968;2023-10-19T07:13:35;93848.31;;;12.35;100.00
10518;BME280;5307;42.548;22.968;2023-10-19T07:16:05;93847.28;;;12.14;99.26
10518;BME280;5307;42.548;22.968;2023-10-19T07:18:34;93853.81;;;12.17;98.10
10518;BME280;5307;42.548;22.968;2023-10-19T07:21:02;93847.69;;;12.49;97.28
10518;BME280;5307;42.548;22.968;2023-10-19T07:23:30;93844.66;;;12.38;96.18
10518;BME280;5307;42.548;22.968;2023-10-19T07:25:57;93856.13;;;12.88;96.31
10518;BME280;5307;42.548;22.968;2023-10-19T07:28:26;93853.00;;;13.04;94.02
10518;BME280;5307;42.548;22.968;2023-10-19T07:30:54;93851.41;;;12.01;95.03
10518;BME280;5307;42.548;22.968;2023-10-19T07:33:21;93856.84;;;12.10;95.48
10518;BME280;5307;42.548;22.968;2023-10-19T07:35:49;93856.22;;;11.78;96.44
10518;BME280;5307;42.548;22.968;2023-10-19T07:38:18;93853.72;;;11.53;98.23
10518;BME280;5307;42.548;22.968;2023-10-19T07:40:47;93868.25;;;11.81;98.89
10518;BME280;5307;42.548;22.968;2023-10-19T07:43:14;93865.63;;;11.77;99.25
10518;BME280;5307;42.548;22.968;2023-10-19T07:45:41;93856.50;;;11.62;99.78
10518;BME280;5307;42.548;22.968;2023-10-19T07:48:10;93856.06;;;11.73;100.00
10518;BME280;5307;42.548;22.968;2023-10-19T07:50:38;93870.78;;;11.57;100.00
10518;BME280;5307;42.548;22.968;2023-10-19T07:53:05;93870.75;;;12.76;99.67
10518;BME280;5307;42.548;22.968;2023-10-19T07:55:33;93876.41;;;12.82;95.93
10518;BME280;5307;42.548;22.968;2023-10-19T07:58:00;93868.22;;;13.24;92.79
10518;BME280;5307;42.548;22.968;2023-10-19T08:00:28;93861.69;;;13.45;90.09
10518;BME280;5307;42.548;22.968;2023-10-19T08:02:56;93868.25;;;13.72;87.49
10518;BME280;5307;42.548;22.968;2023-10-19T08:05:25;93862.13;;;13.20;85.46
10518;BME280;5307;42.548;22.968;2023-10-19T08:07:53;93857.81;;;14.23;83.90
10518;BME280;5307;42.548;22.968;2023-10-19T08:10:22;93857.31;;;13.86;82.93
10518;BME280;5307;42.548;22.968;2023-10-19T08:12:50;93855.09;;;13.76;82.95
10518;BME280;5307;42.548;22.968;2023-10-19T08:15:18;93843.13;;;13.88;82.89
10518;BME280;5307;42.548;22.968;2023-10-19T08:17:47;93842.13;;;14.00;84.30
10518;BME280;5307;42.548;22.968;2023-10-19T08:20:15;93848.56;;;13.73;83.50
10518;BME280;5307;42.548;22.968;2023-10-19T08:22:51;93838.88;;;13.63;84.53
10518;BME280;5307;42.548;22.968;2023-10-19T08:25:18;93852.97;;;13.14;85.38
10518;BME280;5307;42.548;22.968;2023-10-19T08:27:46;93843.88;;;13.64;86.30
10518;BME280;5307;42.548;22.968;2023-10-19T08:30:15;93858.13;;;13.30;86.46
10518;BME280;5307;42.548;22.968;2023-10-19T08:32:43;93842.31;;;13.96;86.83
10518;BME280;5307;42.548;22.968;2023-10-19T08:35:13;93853.81;;;13.86;85.78
10518;BME280;5307;42.548;22.968;2023-10-19T08:37:40;93861.81;;;13.75;85.09
10518;BME280;5307;42.548;22.968;2023-10-19T08:40:10;93860.19;;;13.68;84.87
10518;BME280;5307;42.548;22.968;2023-10-19T08:42:40;93851.84;;;13.39;85.85
10518;BME280;5307;42.548;22.968;2023-10-19T08:45:07;93854.22;;;13.46;86.88
10518;BME280;5307;42.548;22.968;2023-10-19T08:47:35;93855.63;;;13.41;87.16
10518;BME280;5307;42.548;22.968;2023-10-19T08:50:03;93847.88;;;13.63;86.95
10518;BME280;5307;42.548;22.968;2023-10-19T08:52:31;93842.38;;;13.63;87.16
10518;BME280;5307;42.548;22.968;2023-10-19T08:54:59;93849.75;;;13.57;87.41
10518;BME280;5307;42.548;22.968;2023-10-19T08:57:27;93842.50;;;13.69;87.97
10518;BME280;5307;42.548;22.968;2023-10-19T08:59:54;93832.34;;;13.60;87.58
10518;BME280;5307;42.548;22.968;2023-10-19T09:02:25;93833.97;;;13.43;87.95
10518;BME280;5307;42.548;22.968;2023-10-19T09:04:52;93839.34;;;13.85;87.46
10518;BME280;5307;42.548;22.968;2023-10-19T09:07:19;93823.38;;;13.99;87.09
10518;BME280;5307;42.548;22.968;2023-10-19T09:09:46;93819.94;;;13.89;85.85
10518;BME280;5307;42.548;22.968;2023-10-19T09:12:13;93821.41;;;14.14;84.88
10518;BME280;5307;42.548;22.968;2023-10-19T09:14:41;93821.69;;;14.69;84.22
10518;BME280;5307;42.548;22.968;2023-10-19T09:17:11;93805.34;;;15.10;82.47
10518;BME280;5307;42.548;22.968;2023-10-19T09:19:39;93798.94;;;15.19;80.71
10518;BME280;5307;42.548;22.968;2023-10-19T09:22:07;93804.53;;;15.24;79.61
10518;BME280;5307;42.548;22.968;2023-10-19T09:24:43;93789.00;;;15.21;79.42
10518;BME280;5307;42.548;22.968;2023-10-19T09:27:10;93794.25;;;16.21;78.13
10518;BME280;5307;42.548;22.968;2023-10-19T09:29:38;93793.50;;;16.46;75.40
10518;BME280;5307;42.548;22.968;2023-10-19T09:32:07;93796.13;;;15.89;75.14
10518;BME280;5307;42.548;22.968;2023-10-19T09:34:35;93782.38;;;15.89;75.28
10518;BME280;5307;42.548;22.968;2023-10-19T09:37:04;93789.75;;;15.77;75.92
10518;BME280;5307;42.548;22.968;2023-10-19T09:39:31;93794.97;;;15.95;74.90
10518;BME280;5307;42.548;22.968;2023-10-19T09:42:01;93784.44;;;16.40;74.89
10518;BME280;5307;42.548;22.968;2023-10-19T09:44:37;93793.94;;;15.93;73.74
10518;BME280;5307;42.548;22.968;2023-10-19T09:47:10;93797.69;;;16.16;73.97
10518;BME280;5307;42.548;22.968;2023-10-19T09:49:38;93799.97;;;16.43;73.78
10518;BME280;5307;42.548;22.968;2023-10-19T09:52:06;93794.50;;;16.69;72.52
10518;BME280;5307;42.548;22.968;2023-10-19T09:54:41;93782.63;;;17.69;72.61
10518;BME280;5307;42.548;22.968;2023-10-19T09:57:16;93777.69;;;17.36;70.07
10518;BME280;5307;42.548;22.968;2023-10-19T09:59:47;93771.56;;;16.89;70.19
10518;BME280;5307;42.548;22.968;2023-10-19T10:02:19;93767.84;;;16.92;70.73
10518;BME280;5307;42.548;22.968;2023-10-19T10:04:47;93757.44;;;17.13;70.35
10518;BME280;5307;42.548;22.968;2023-10-19T10:07:14;93770.06;;;17.19;69.36
10518;BME280;5307;42.548;22.968;2023-10-19T10:09:43;93766.91;;;17.43;68.94
10518;BME280;5307;42.548;22.968;2023-10-19T10:12:18;93752.94;;;17.58;68.81
10518;BME280;5307;42.548;22.968;2023-10-19T10:14:55;93744.03;;;17.86;68.21
10518;BME280;5307;42.548;22.968;2023-10-19T10:17:25;93735.47;;;17.30;67.86
10518;BME280;5307;42.548;22.968;2023-10-19T10:19:54;93732.56;;;17.50;68.94
10518;BME280;5307;42.548;22.968;2023-10-19T10:22:22;93734.56;;;18.03;67.69
10518;BME280;5307;42.548;22.968;2023-10-19T10:24:54;93723.97;;;17.91;65.26
10518;BME280;5307;42.548;22.968;2023-10-19T10:27:21;93714.19;;;18.01;66.33
10518;BME280;5307;42.548;22.968;2023-10-19T10:29:57;93707.94;;;18.12;65.87
10518;BME280;5307;42.548;22.968;2023-10-19T10:32:45;93708.22;;;18.30;64.72
10518;BME280;5307;42.548;22.968;2023-10-19T10:38:13;93702.09;;;17.82;65.24
10518;BME280;5307;42.548;22.968;2023-10-19T10:40:44;93686.44;;;17.62;65.25
10518;BME280;5307;42.548;22.968;2023-10-19T10:43:12;93668.03;;;18.46;65.18
10518;BME280;5307;42.548;22.968;2023-10-19T10:45:38;93660.19;;;18.05;63.91
10518;BME280;5307;42.548;22.968;2023-10-19T10:48:12;93673.00;;;18.03;64.34
10518;BME280;5307;42.548;22.968;2023-10-19T10:50:39;93661.41;;;17.76;64.32
10518;BME280;5307;42.548;22.968;2023-10-19T10:53:07;93653.44;;;18.68;64.44
10518;BME280;5307;42.548;22.968;2023-10-19T10:55:34;93660.97;;;18.62;63.97
10518;BME280;5307;42.548;22.968;2023-10-19T10:58:01;93661.44;;;18.10;63.02
10518;BME280;5307;42.548;22.968;2023-10-19T11:00:27;93656.22;;;18.74;62.95
10518;BME280;5307;42.548;22.968;2023-10-19T11:03:00;93645.66;;;18.33;64.47
10518;BME280;5307;42.548;22.968;2023-10-19T11:05:30;93639.84;;;18.42;64.10
10518;BME280;5307;42.548;22.968;2023-10-19T11:08:04;93645.88;;;18.18;61.90
10518;BME280;5307;42.548;22.968;2023-10-19T11:10:34;93647.13;;;18.39;61.80
10518;BME280;5307;42.548;22.968;2023-10-19T11:13:02;93649.66;;;18.77;61.53
10518;BME280;5307;42.548;22.968;2023-10-19T11:15:28;93639.09;;;18.53;61.03
10518;BME280;5307;42.548;22.968;2023-10-19T11:17:56;93643.84;;;18.91;61.01
10518;BME280;5307;42.548;22.968;2023-10-19T11:20:24;93640.09;;;18.38;60.33
10518;BME280;5307;42.548;22.968;2023-10-19T11:22:54;93623.00;;;18.51;60.45
10518;BME280;5307;42.548;22.968;2023-10-19T11:25:24;93633.56;;;18.81;59.91
10518;BME280;5307;42.548;22.968;2023-10-19T11:27:53;93626.53;;;18.35;59.70
10518;BME280;5307;42.548;22.968;2023-10-19T11:30:25;93631.28;;;18.12;60.05
10518;BME280;5307;42.548;22.968;2023-10-19T11:32:52;93639.09;;;18.58;59.73
10518;BME280;5307;42.548;22.968;2023-10-19T11:35:23;93626.28;;;18.78;59.99
10518;BME280;5307;42.548;22.968;2023-10-19T11:37:51;93618.47;;;18.76;58.71
10518;BME280;5307;42.548;22.968;2023-10-19T11:40:20;93617.66;;;18.98;59.29
10518;BME280;5307;42.548;22.968;2023-10-19T11:42:47;93612.44;;;18.55;59.85
10518;BME280;5307;42.548;22.968;2023-10-19T11:45:14;93611.66;;;18.83;59.83
10518;BME280;5307;42.548;22.968;2023-10-19T11:47:42;93616.97;;;18.36;60.70
10518;BME280;5307;42.548;22.968;2023-10-19T11:50:09;93611.44;;;18.75;61.04
10518;BME280;5307;42.548;22.968;2023-10-19T11:52:37;93612.19;;;18.48;60.76
10518;BME280;5307;42.548;22.968;2023-10-19T11:55:05;93605.16;;;18.24;61.22
10518;BME280;5307;42.548;22.968;2023-10-19T11:57:35;93598.09;;;18.79;61.94
10518;BME280;5307;42.548;22.968;2023-10-19T12:00:02;93596.06;;;18.80;61.34
10518;BME280;5307;42.548;22.968;2023-10-19T12:02:35;93601.84;;;18.87;62.00
10518;BME280;5307;42.548;22.968;2023-10-19T12:05:04;93594.84;;;18.75;60.18
10518;BME280;5307;42.548;22.968;2023-10-19T12:07:35;93602.63;;;18.60;61.03
10518;BME280;5307;42.548;22.968;2023-10-19T12:10:03;93595.09;;;18.66;61.19
10518;BME280;5307;42.548;22.968;2023-10-19T12:12:30;93597.38;;;18.45;61.87
10518;BME280;5307;42.548;22.968;2023-10-19T12:14:58;93580.00;;;18.56;61.79
10518;BME280;5307;42.548;22.968;2023-10-19T12:17:25;93590.56;;;18.52;61.32
10518;BME280;5307;42.548;22.968;2023-10-19T12:19:53;93584.56;;;18.36;61.24
10518;BME280;5307;42.548;22.968;2023-10-19T12:22:21;93580.72;;;18.90;62.60
10518;BME280;5307;42.548;22.968;2023-10-19T12:24:47;93581.47;;;18.90;61.76
10518;BME280;5307;42.548;22.968;2023-10-19T12:27:17;93594.25;;;18.99;61.44
10518;BME280;5307;42.548;22.968;2023-10-19T12:29:44;93600.38;;;18.53;61.41
10518;BME280;5307;42.548;22.968;2023-10-19T12:32:12;93589.81;;;18.68;62.53
10518;BME280;5307;42.548;22.968;2023-10-19T12:34:40;93589.06;;;18.73;62.18
10518;BME280;5307;42.548;22.968;2023-10-19T12:37:07;93582.47;;;18.93;62.02
10518;BME280;5307;42.548;22.968;2023-10-19T12:39:36;93591.03;;;18.89;61.60
10518;BME280;5307;42.548;22.968;2023-10-19T12:42:08;93584.28;;;18.40;60.92
10518;BME280;5307;42.548;22.968;2023-10-19T12:44:35;93584.28;;;18.68;62.37
10518;BME280;5307;42.548;22.968;2023-10-19T12:47:07;93578.94;;;18.92;62.04
10518;BME280;5307;42.548;22.968;2023-10-19T12:49:37;93576.19;;;18.81;61.66
10518;BME280;5307;42.548;22.968;2023-10-19T12:52:04;93576.94;;;18.87;61.64
10518;BME280;5307;42.548;22.968;2023-10-19T12:54:32;93570.44;;;18.68;61.34
10518;BME280;5307;42.548;22.968;2023-10-19T12:57:00;93556.84;;;18.76;62.01
10518;BME280;5307;42.548;22.968;2023-10-19T12:59:29;93551.84;;;18.74;62.14
10518;BME280;5307;42.548;22.968;2023-10-19T13:01:56;93554.84;;;18.54;61.82
10518;BME280;5307;42.548;22.968;2023-10-19T13:04:24;93552.84;;;18.60;62.65
10518;BME280;5307;42.548;22.968;2023-10-19T13:06:52;93553.59;;;18.60;62.29
10518;BME280;5307;42.548;22.968;2023-10-19T13:09:23;93544.06;;;18.50;62.61
10518;BME280;5307;42.548;22.968;2023-10-19T13:11:57;93542.03;;;18.56;63.12